Time;durP1;ratioP1;P1;durP2;ratioP2;P2;SDS_P1;SDS_P2;PMS_P1;PMS_P2;Temp;Humidity;BMP_temperature;BMP_pressure;BME280_temperature;BME280_humidity;BME280_pressure;Samples;Min_cycle;Max_cycle;Signal;HPM_P1;HPM_P2
2021/09/15 00:00:34;;;;;;;;;;;19.50;99.90;;;;;;8347054;28;19932;-73
2021/09/15 00:04:35;;;;;;;;;;;19.50;99.90;;;;;;8339886;28;19921;-73
2021/09/15 00:08:37;;;;;;;;;;;19.50;99.90;;;;;;8349009;28;19925;-73
2021/09/15 00:12:39;;;;;;;;;;;19.50;99.90;;;;;;8347222;28;20376;-73
2021/09/15 00:16:40;;;;;;;;;;;19.40;99.90;;;;;;8354790;28;19924;-72
2021/09/15 00:20:42;;;;;;;;;;;19.40;99.90;;;;;;8349072;28;19921;-73
2021/09/15 00:24:44;;;;;;;;;;;19.40;99.90;;;;;;8349637;28;19928;-72
2021/09/15 00:28:45;;;;;;;;;;;19.30;99.90;;;;;;8354867;28;20274;-73
2021/09/15 00:32:47;;;;;;;;;;;19.20;99.90;;;;;;8354049;28;19936;-73
2021/09/15 00:36:48;;;;;;;;;;;19.20;99.90;;;;;;8347014;28;19931;-73
2021/09/15 00:40:50;;;;;;;;;;;19.20;99.90;;;;;;8359964;28;19970;-73
2021/09/15 00:44:52;;;;;;;;;;;19.10;99.90;;;;;;8359677;28;19920;-73
2021/09/15 00:48:54;;;;;;;;;;;19.10;99.90;;;;;;8361335;28;19947;-72
2021/09/15 00:52:56;;;;;;;;;;;19.10;99.90;;;;;;8357524;28;20202;-73
2021/09/15 00:56:57;;;;;;;;;;;19.00;99.90;;;;;;8353112;28;19928;-73
2021/09/15 01:00:59;;;;;;;;;;;19.00;99.90;;;;;;8359249;28;19928;-73
2021/09/15 01:05:01;;;;;;;;;;;19.00;99.90;;;;;;8359816;28;19956;-73
2021/09/15 01:09:04;;;;;;;;;;;18.90;99.90;;;;;;8363728;28;19920;-72
2021/09/15 01:13:05;;;;;;;;;;;18.90;99.90;;;;;;8354295;28;19943;-73
2021/09/15 01:17:10;;;;;;;;;;;18.90;99.90;;;;;;8356983;28;19920;-72
2021/09/15 01:21:12;;;;;;;;;;;18.80;99.90;;;;;;8350563;28;20034;-73
2021/09/15 01:25:13;;;;;;;;;;;18.80;99.90;;;;;;8353900;28;20325;-73
2021/09/15 01:29:16;;;;;;;;;;;18.80;99.90;;;;;;8366207;28;19927;-72
2021/09/15 01:33:18;;;;;;;;;;;18.80;99.90;;;;;;8349778;28;19921;-72
2021/09/15 01:37:21;;;;;;;;;;;18.70;99.90;;;;;;8357164;28;20430;-73
2021/09/15 01:41:23;;;;;;;;;;;18.70;99.90;;;;;;8354903;28;19929;-73
2021/09/15 01:45:25;;;;;;;;;;;18.60;99.90;;;;;;8363050;28;19925;-72
2021/09/15 01:49:28;;;;;;;;;;;18.60;99.90;;;;;;8358151;28;20410;-72
2021/09/15 01:53:29;;;;;;;;;;;18.60;99.90;;;;;;8354462;28;19921;-73
2021/09/15 01:57:31;;;;;;;;;;;18.50;99.90;;;;;;8351593;28;19933;-73
2021/09/15 02:01:33;;;;;;;;;;;18.50;99.90;;;;;;8353252;28;20323;-72
2021/09/15 02:05:35;;;;;;;;;;;18.50;99.90;;;;;;8355030;28;19925;-72
2021/09/15 02:09:36;;;;;;;;;;;18.50;99.90;;;;;;8367550;28;20359;-72
2021/09/15 02:13:38;;;;;;;;;;;18.50;99.90;;;;;;8345603;28;19928;-72
2021/09/15 02:17:40;;;;;;;;;;;18.40;99.90;;;;;;8352102;28;19936;-73
2021/09/15 02:21:42;;;;;;;;;;;18.40;99.90;;;;;;8348343;28;19921;-72
2021/09/15 02:25:44;;;;;;;;;;;18.40;99.90;;;;;;8355336;28;19967;-73
2021/09/15 02:29:45;;;;;;;;;;;18.30;99.90;;;;;;8355476;28;20007;-72
2021/09/15 02:33:47;;;;;;;;;;;18.30;99.90;;;;;;8362735;28;19920;-73
2021/09/15 02:37:49;;;;;;;;;;;18.30;99.90;;;;;;8361623;28;20035;-73
2021/09/15 02:41:50;;;;;;;;;;;18.30;99.90;;;;;;8351897;28;19932;-72
2021/09/15 02:45:53;;;;;;;;;;;18.30;99.90;;;;;;8363144;28;19925;-73
2021/09/15 02:49:56;;;;;;;;;;;18.20;99.90;;;;;;8354949;28;20288;-73
2021/09/15 02:53:58;;;;;;;;;;;18.20;99.90;;;;;;8353448;28;20264;-73
2021/09/15 02:57:59;;;;;;;;;;;18.20;99.90;;;;;;8359660;28;20349;-73
2021/09/15 03:02:01;;;;;;;;;;;18.10;99.90;;;;;;8354083;28;20376;-72
2021/09/15 03:06:03;;;;;;;;;;;18.10;99.90;;;;;;8350390;28;19921;-73
2021/09/15 03:10:05;;;;;;;;;;;18.10;99.90;;;;;;8356547;28;19979;-73
2021/09/15 03:14:07;;;;;;;;;;;18.10;99.90;;;;;;8355286;28;19928;-72
2021/09/15 03:18:09;;;;;;;;;;;18.10;99.90;;;;;;8355158;28;19920;-73
2021/09/15 03:22:11;;;;;;;;;;;18.00;99.90;;;;;;8353137;28;19927;-73
2021/09/15 03:26:13;;;;;;;;;;;18.00;99.90;;;;;;8358111;28;19920;-72
2021/09/15 03:30:14;;;;;;;;;;;18.00;99.90;;;;;;8355484;28;19963;-73
2021/09/15 03:34:16;;;;;;;;;;;18.00;99.90;;;;;;8340939;28;19929;-72
2021/09/15 03:38:18;;;;;;;;;;;18.00;99.90;;;;;;8351511;28;19928;-72
2021/09/15 03:42:19;;;;;;;;;;;18.00;99.90;;;;;;8354336;28;19931;-73
2021/09/15 03:46:21;;;;;;;;;;;18.00;99.90;;;;;;8353573;28;19928;-73
2021/09/15 03:50:22;;;;;;;;;;;17.90;99.90;;;;;;8350607;28;19928;-73
2021/09/15 03:54:24;;;;;;;;;;;17.90;99.90;;;;;;8344646;28;20284;-73
2021/09/15 03:58:26;;;;;;;;;;;17.90;99.90;;;;;;8344294;28;19932;-73
2021/09/15 04:02:27;;;;;;;;;;;18.00;99.90;;;;;;8364178;28;19921;-73
2021/09/15 04:06:29;;;;;;;;;;;18.00;99.90;;;;;;8353491;28;20283;-73
2021/09/15 04:10:31;;;;;;;;;;;18.00;99.90;;;;;;8348912;28;19920;-73
2021/09/15 04:14:32;;;;;;;;;;;18.00;99.90;;;;;;8344858;28;19930;-73
2021/09/15 04:18:34;;;;;;;;;;;18.00;99.90;;;;;;8348116;28;19927;-72
2021/09/15 04:22:38;;;;;;;;;;;18.00;99.90;;;;;;8341472;28;20011;-73
2021/09/15 04:35:19;;;;;;;;;;;18.00;99.90;;;;;;8346711;28;19921;-72
2021/09/15 04:39:27;;;;;;;;;;;18.00;99.90;;;;;;8347210;28;19959;-73
2021/09/15 04:43:29;;;;;;;;;;;18.00;99.90;;;;;;8351241;28;20304;-73
2021/09/15 04:47:30;;;;;;;;;;;18.00;99.90;;;;;;8344966;28;19928;-72
2021/09/15 04:51:38;;;;;;;;;;;18.00;99.90;;;;;;8342653;28;20352;-73
2021/09/15 04:55:41;;;;;;;;;;;18.00;99.90;;;;;;8345377;28;19932;-73
2021/09/15 04:59:43;;;;;;;;;;;18.00;99.90;;;;;;8347622;28;19955;-73
2021/09/15 05:03:45;;;;;;;;;;;18.00;99.90;;;;;;8352786;28;20365;-73
2021/09/15 05:07:46;;;;;;;;;;;18.00;99.90;;;;;;8355351;28;19921;-72
2021/09/15 05:11:48;;;;;;;;;;;18.00;99.90;;;;;;8349906;28;20319;-72
2021/09/15 05:15:49;;;;;;;;;;;18.00;99.90;;;;;;8337730;28;20671;-73
2021/09/15 05:19:51;;;;;;;;;;;18.00;99.90;;;;;;8346392;28;20221;-73
2021/09/15 05:23:53;;;;;;;;;;;18.00;99.90;;;;;;8346383;28;19933;-72
2021/09/15 05:27:55;;;;;;;;;;;18.00;99.90;;;;;;8358448;28;19948;-73
2021/09/15 05:31:56;;;;;;;;;;;18.00;99.90;;;;;;8360214;28;19925;-72
2021/09/15 05:35:58;;;;;;;;;;;18.00;99.90;;;;;;8373185;28;20029;-72
2021/09/15 05:40:00;;;;;;;;;;;18.10;99.90;;;;;;8351608;28;19925;-72
2021/09/15 05:44:02;;;;;;;;;;;18.10;99.90;;;;;;8350229;28;20383;-72
2021/09/15 05:48:04;;;;;;;;;;;18.10;99.90;;;;;;8352046;28;19933;-73
2021/09/15 05:52:05;;;;;;;;;;;18.10;99.90;;;;;;8345273;28;19935;-73
2021/09/15 05:56:07;;;;;;;;;;;18.10;99.90;;;;;;8370685;28;19940;-72
2021/09/15 06:00:09;;;;;;;;;;;18.10;99.90;;;;;;8359888;28;20322;-72
2021/09/15 06:04:25;;;;;;;;;;;18.10;99.90;;;;;;8355847;28;19932;-73
2021/09/15 06:08:27;;;;;;;;;;;18.10;99.90;;;;;;8356111;28;19932;-73
2021/09/15 06:12:29;;;;;;;;;;;18.10;99.90;;;;;;8357604;28;20058;-72
2021/09/15 06:16:31;;;;;;;;;;;18.10;99.90;;;;;;8354002;28;19929;-72
2021/09/15 06:21:09;;;;;;;;;;;18.10;99.90;;;;;;8348699;28;19933;-72
2021/09/15 06:25:11;;;;;;;;;;;18.10;99.90;;;;;;8359289;28;19928;-72
2021/09/15 06:29:13;;;;;;;;;;;18.10;99.90;;;;;;8345145;28;20300;-72
2021/09/15 06:33:14;;;;;;;;;;;18.20;99.90;;;;;;8354093;28;20233;-72
2021/09/15 06:37:16;;;;;;;;;;;18.20;99.90;;;;;;8354539;28;19932;-72
2021/09/15 06:41:18;;;;;;;;;;;18.20;99.90;;;;;;8353196;28;19925;-72
2021/09/15 06:45:19;;;;;;;;;;;18.20;99.90;;;;;;8353067;28;19925;-72
2021/09/15 06:49:43;;;;;;;;;;;18.30;99.90;;;;;;8351907;28;19928;-72
2021/09/15 06:53:45;;;;;;;;;;;18.30;99.90;;;;;;8348106;28;19925;-72
2021/09/15 06:57:47;;;;;;;;;;;18.30;99.90;;;;;;8357475;28;20276;-72
2021/09/15 07:01:49;;;;;;;;;;;18.40;99.90;;;;;;8356479;28;19932;-72
2021/09/15 07:05:50;;;;;;;;;;;18.40;99.90;;;;;;8349601;28;19935;-73
2021/09/15 07:09:52;;;;;;;;;;;18.50;99.90;;;;;;8353270;28;19929;-73
2021/09/15 07:13:53;;;;;;;;;;;18.50;99.90;;;;;;8350243;28;19925;-73
2021/09/15 07:17:55;;;;;;;;;;;18.60;99.90;;;;;;8358835;28;20334;-73
2021/09/15 07:21:57;;;;;;;;;;;18.60;99.90;;;;;;8342729;28;19926;-73
2021/09/15 07:25:58;;;;;;;;;;;18.70;99.90;;;;;;8333985;28;19933;-73
2021/09/15 07:30:00;;;;;;;;;;;18.70;99.90;;;;;;8341862;28;19936;-72
2021/09/15 07:34:02;;;;;;;;;;;18.70;99.90;;;;;;8330549;28;19933;-73
2021/09/15 07:38:03;;;;;;;;;;;18.70;99.90;;;;;;8332343;28;19928;-73
2021/09/15 07:42:06;;;;;;;;;;;18.80;99.90;;;;;;8328915;28;19976;-73
2021/09/15 07:46:08;;;;;;;;;;;18.80;99.90;;;;;;8337618;28;19947;-73
2021/09/15 07:50:10;;;;;;;;;;;18.90;99.90;;;;;;8338295;28;19929;-73
2021/09/15 07:54:12;;;;;;;;;;;18.90;99.90;;;;;;8336635;28;19936;-72
2021/09/15 07:58:13;;;;;;;;;;;18.90;99.90;;;;;;8332747;28;20349;-73
2021/09/15 08:02:15;;;;;;;;;;;19.00;99.90;;;;;;8331025;28;19925;-73
2021/09/15 08:06:17;;;;;;;;;;;19.00;99.90;;;;;;8334817;28;19925;-72
2021/09/15 08:10:18;;;;;;;;;;;19.10;99.90;;;;;;8333709;28;19936;-73
2021/09/15 08:14:20;;;;;;;;;;;19.10;99.90;;;;;;8337898;28;19925;-73
2021/09/15 08:18:22;;;;;;;;;;;19.10;99.90;;;;;;8331481;28;19944;-73
2021/09/15 08:22:33;;;;;;;;;;;19.10;99.90;;;;;;8328973;28;19931;-73
2021/09/15 08:26:34;;;;;;;;;;;19.10;99.90;;;;;;8333010;28;20364;-73
2021/09/15 08:30:36;;;;;;;;;;;19.10;99.90;;;;;;8334473;28;19968;-73
2021/09/15 08:34:37;;;;;;;;;;;19.10;99.90;;;;;;8332226;28;20349;-73
2021/09/15 08:38:39;;;;;;;;;;;19.10;99.90;;;;;;8345137;28;19936;-73
2021/09/15 08:42:41;;;;;;;;;;;19.10;99.90;;;;;;8349162;28;19936;-73
2021/09/15 08:46:43;;;;;;;;;;;19.10;99.90;;;;;;8342661;28;19933;-73
2021/09/15 08:50:46;;;;;;;;;;;19.00;99.90;;;;;;8331548;28;20315;-73
2021/09/15 08:54:47;;;;;;;;;;;19.00;99.90;;;;;;8334797;28;19983;-73
2021/09/15 08:58:49;;;;;;;;;;;19.00;99.90;;;;;;8339273;28;19925;-73
2021/09/15 09:02:51;;;;;;;;;;;19.00;99.90;;;;;;8334183;28;19929;-73
2021/09/15 09:06:53;;;;;;;;;;;19.00;99.90;;;;;;8334250;28;19936;-73
2021/09/15 09:10:55;;;;;;;;;;;19.10;99.90;;;;;;8341720;28;19928;-73
2021/09/15 09:15:12;;;;;;;;;;;19.10;99.90;;;;;;8347486;28;19925;-73
2021/09/15 09:19:15;;;;;;;;;;;19.20;99.90;;;;;;8347117;28;20289;-73
2021/09/15 09:23:18;;;;;;;;;;;19.30;99.90;;;;;;8337861;28;20392;-73
2021/09/15 09:27:27;;;;;;;;;;;19.30;99.90;;;;;;8338057;28;20288;-73
2021/09/15 09:31:32;;;;;;;;;;;19.40;99.90;;;;;;8340773;28;20042;-73
2021/09/15 09:35:42;;;;;;;;;;;19.40;99.90;;;;;;8339766;28;19932;-73
2021/09/15 09:39:43;;;;;;;;;;;19.50;99.90;;;;;;8338242;28;20032;-73
2021/09/15 09:43:49;;;;;;;;;;;19.50;99.90;;;;;;8345533;28;19931;-74
2021/09/15 09:47:56;;;;;;;;;;;19.40;99.90;;;;;;8339169;28;19936;-73
2021/09/15 09:51:58;;;;;;;;;;;19.50;99.90;;;;;;8337538;28;19943;-73
2021/09/15 09:55:59;;;;;;;;;;;19.40;99.90;;;;;;8335829;28;20578;-73
2021/09/15 10:00:01;;;;;;;;;;;19.30;99.90;;;;;;8336749;28;19924;-73
2021/09/15 10:04:03;;;;;;;;;;;19.30;99.90;;;;;;8339428;28;19982;-73
2021/09/15 10:08:05;;;;;;;;;;;19.20;99.90;;;;;;8332618;28;20280;-73
2021/09/15 10:12:07;;;;;;;;;;;19.30;99.90;;;;;;8322124;28;20811;-73
2021/09/15 10:16:09;;;;;;;;;;;19.30;99.90;;;;;;8325236;28;19936;-73
2021/09/15 10:20:12;;;;;;;;;;;19.30;99.90;;;;;;8330383;28;19940;-73
2021/09/15 10:24:14;;;;;;;;;;;19.20;99.90;;;;;;8329934;28;19925;-73
2021/09/15 10:28:17;;;;;;;;;;;19.30;99.90;;;;;;8324101;28;20373;-73
2021/09/15 10:32:30;;;;;;;;;;;19.40;99.90;;;;;;8326859;28;19925;-73
2021/09/15 10:36:38;;;;;;;;;;;19.40;99.90;;;;;;8324736;28;20019;-73
2021/09/15 10:40:41;;;;;;;;;;;19.40;99.90;;;;;;8331034;28;19952;-73
2021/09/15 10:45:03;;;;;;;;;;;19.50;99.90;;;;;;8342624;28;19929;-73
2021/09/15 10:49:22;;;;;;;;;;;19.50;99.90;;;;;;8328191;28;19948;-73
2021/09/15 10:53:47;;;;;;;;;;;19.40;99.90;;;;;;8329030;28;19945;-73
2021/09/15 10:57:49;;;;;;;;;;;19.50;99.90;;;;;;8335669;28;19933;-73
2021/09/15 11:01:51;;;;;;;;;;;19.50;99.90;;;;;;8340525;28;20369;-73
2021/09/15 11:05:52;;;;;;;;;;;19.50;99.90;;;;;;8328590;28;20023;-73
2021/09/15 11:09:58;;;;;;;;;;;19.50;99.90;;;;;;8323625;28;20264;-73
2021/09/15 11:14:01;;;;;;;;;;;19.50;99.90;;;;;;8325732;28;19925;-73
2021/09/15 11:18:03;;;;;;;;;;;19.50;99.90;;;;;;8325522;28;19995;-73
2021/09/15 11:22:05;;;;;;;;;;;19.50;99.90;;;;;;8325995;28;19933;-73
2021/09/15 11:26:07;;;;;;;;;;;19.40;99.90;;;;;;8323891;28;20275;-73
2021/09/15 11:30:09;;;;;;;;;;;19.40;99.90;;;;;;8330606;28;19932;-72
2021/09/15 11:34:13;;;;;;;;;;;19.40;99.90;;;;;;8329644;28;19925;-73
2021/09/15 11:38:14;;;;;;;;;;;19.50;99.90;;;;;;8323586;28;19924;-73
2021/09/15 11:42:19;;;;;;;;;;;19.50;99.90;;;;;;8319744;28;19933;-73
2021/09/15 11:46:29;;;;;;;;;;;19.50;99.90;;;;;;8324477;28;19929;-73
2021/09/15 11:50:34;;;;;;;;;;;19.50;99.90;;;;;;8323673;28;19936;-73
2021/09/15 11:54:36;;;;;;;;;;;19.50;99.90;;;;;;8323966;28;19967;-73
2021/09/15 11:58:38;;;;;;;;;;;19.50;99.90;;;;;;8337089;28;19932;-73
2021/09/15 12:02:40;;;;;;;;;;;19.50;99.90;;;;;;8334180;28;19929;-73
2021/09/15 12:06:42;;;;;;;;;;;19.50;99.90;;;;;;8322813;28;19925;-73
2021/09/15 12:10:45;;;;;;;;;;;19.50;99.90;;;;;;8321283;28;19925;-72
2021/09/15 12:14:48;;;;;;;;;;;19.50;99.90;;;;;;8315764;28;19929;-72
2021/09/15 12:18:50;;;;;;;;;;;19.40;99.90;;;;;;8325901;28;19931;-73
2021/09/15 12:22:52;;;;;;;;;;;19.50;99.90;;;;;;8333356;28;19944;-73
2021/09/15 12:26:54;;;;;;;;;;;19.60;99.90;;;;;;8323225;28;19956;-73
2021/09/15 12:30:56;;;;;;;;;;;19.60;99.90;;;;;;8320679;28;19936;-74
2021/09/15 12:34:57;;;;;;;;;;;19.60;99.90;;;;;;8327827;28;20317;-74
2021/09/15 12:39:00;;;;;;;;;;;19.70;99.90;;;;;;8334297;28;20385;-73
2021/09/15 12:43:02;;;;;;;;;;;19.80;99.90;;;;;;8331356;28;19925;-73
2021/09/15 12:47:05;;;;;;;;;;;19.80;99.90;;;;;;8331066;28;20135;-73
2021/09/15 12:51:06;;;;;;;;;;;19.90;99.90;;;;;;8343000;28;19929;-73
2021/09/15 12:55:08;;;;;;;;;;;19.90;99.90;;;;;;8343693;28;20387;-73
2021/09/15 12:59:29;;;;;;;;;;;19.90;99.90;;;;;;8340606;28;19995;-73
2021/09/15 13:03:35;;;;;;;;;;;19.80;99.90;;;;;;8331247;28;19933;-73
2021/09/15 13:07:39;;;;;;;;;;;19.80;99.90;;;;;;8330308;28;19947;-73
2021/09/15 13:11:41;;;;;;;;;;;19.70;99.90;;;;;;8331656;28;19932;-74
2021/09/15 13:15:43;;;;;;;;;;;19.70;99.90;;;;;;8334884;28;19959;-73
2021/09/15 13:19:46;;;;;;;;;;;19.60;99.90;;;;;;8346619;28;19925;-73
2021/09/15 13:23:47;;;;;;;;;;;19.70;99.90;;;;;;8330975;28;20229;-74
2021/09/15 13:27:49;;;;;;;;;;;19.70;99.90;;;;;;8332034;28;19925;-73
2021/09/15 13:31:51;;;;;;;;;;;19.80;99.90;;;;;;8330650;28;20684;-74
2021/09/15 13:35:52;;;;;;;;;;;19.90;99.90;;;;;;8346754;28;20470;-74
2021/09/15 13:39:55;;;;;;;;;;;19.80;99.90;;;;;;8332319;28;19929;-73
2021/09/15 13:43:57;;;;;;;;;;;19.80;99.90;;;;;;8330190;28;19928;-73
2021/09/15 13:47:58;;;;;;;;;;;19.90;99.90;;;;;;8326148;28;20032;-73
2021/09/15 13:52:00;;;;;;;;;;;19.90;99.90;;;;;;8326321;28;19925;-73
2021/09/15 13:56:13;;;;;;;;;;;19.90;99.90;;;;;;8326684;28;20081;-73
2021/09/15 14:00:15;;;;;;;;;;;20.10;99.90;;;;;;8328423;28;19936;-73
2021/09/15 14:04:16;;;;;;;;;;;20.30;99.90;;;;;;8323883;28;19925;-73
2021/09/15 14:08:18;;;;;;;;;;;20.40;99.90;;;;;;8327919;28;19925;-73
2021/09/15 14:12:20;;;;;;;;;;;20.40;99.90;;;;;;8337710;28;19936;-74
2021/09/15 14:16:24;;;;;;;;;;;20.40;99.90;;;;;;8325728;28;19983;-73
2021/09/15 14:20:26;;;;;;;;;;;20.40;99.90;;;;;;8327851;28;20363;-73
2021/09/15 14:24:27;;;;;;;;;;;20.30;99.90;;;;;;8324913;28;19933;-73
2021/09/15 14:28:29;;;;;;;;;;;20.20;99.90;;;;;;8324016;28;19932;-73
2021/09/15 14:32:31;;;;;;;;;;;20.10;99.90;;;;;;8338984;28;19936;-74
2021/09/15 14:36:33;;;;;;;;;;;20.00;99.90;;;;;;8325400;28;19933;-73
2021/09/15 14:40:35;;;;;;;;;;;20.00;99.90;;;;;;8328544;28;19936;-73
2021/09/15 14:44:36;;;;;;;;;;;19.90;99.90;;;;;;8326597;28;19929;-73
2021/09/15 14:48:38;;;;;;;;;;;19.80;99.90;;;;;;8339632;28;19925;-73
2021/09/15 14:52:40;;;;;;;;;;;19.80;99.90;;;;;;8333840;28;19929;-73
2021/09/15 14:56:41;;;;;;;;;;;19.80;99.90;;;;;;8338460;28;19932;-73
2021/09/15 15:00:43;;;;;;;;;;;19.80;99.90;;;;;;8335138;28;20308;-73
2021/09/15 15:04:45;;;;;;;;;;;19.80;99.90;;;;;;8337135;28;19929;-73
2021/09/15 15:08:46;;;;;;;;;;;19.80;99.90;;;;;;8323918;28;19968;-73
2021/09/15 15:12:48;;;;;;;;;;;19.70;99.90;;;;;;8325052;28;19929;-73
2021/09/15 15:16:50;;;;;;;;;;;19.70;99.90;;;;;;8327681;28;19925;-73
2021/09/15 15:20:52;;;;;;;;;;;19.60;99.90;;;;;;8312463;28;19942;-73
2021/09/15 15:24:53;;;;;;;;;;;19.60;99.90;;;;;;8314791;28;19933;-73
2021/09/15 15:28:55;;;;;;;;;;;19.50;99.90;;;;;;8326225;28;19940;-73
2021/09/15 15:32:57;;;;;;;;;;;19.60;99.90;;;;;;8333333;28;19936;-73
2021/09/15 15:36:58;;;;;;;;;;;19.60;99.90;;;;;;8323752;28;19926;-73
2021/09/15 15:41:00;;;;;;;;;;;19.60;99.90;;;;;;8324077;28;19929;-73
2021/09/15 15:45:03;;;;;;;;;;;19.50;99.90;;;;;;8321177;28;19925;-73
2021/09/15 15:49:04;;;;;;;;;;;19.50;99.90;;;;;;8320939;28;20396;-73
2021/09/15 15:53:06;;;;;;;;;;;19.50;99.90;;;;;;8322283;28;19928;-73
2021/09/15 15:57:08;;;;;;;;;;;19.40;99.90;;;;;;8323884;28;19932;-73
2021/09/15 16:01:09;;;;;;;;;;;19.30;99.90;;;;;;8325109;28;19987;-73
2021/09/15 16:05:11;;;;;;;;;;;19.30;99.90;;;;;;8323930;28;20019;-73
2021/09/15 16:09:13;;;;;;;;;;;19.20;99.90;;;;;;8319751;28;20404;-73
2021/09/15 16:13:15;;;;;;;;;;;19.10;99.90;;;;;;8322017;28;19933;-73
2021/09/15 16:17:17;;;;;;;;;;;19.10;99.90;;;;;;8335953;28;19933;-73
2021/09/15 16:21:18;;;;;;;;;;;19.10;99.90;;;;;;8335754;28;19940;-73
2021/09/15 16:25:20;;;;;;;;;;;19.00;99.90;;;;;;8328298;28;19951;-73
2021/09/15 16:29:22;;;;;;;;;;;19.00;99.90;;;;;;8332598;28;20296;-73
2021/09/15 16:33:24;;;;;;;;;;;19.00;99.90;;;;;;8324473;28;19925;-73
2021/09/15 16:37:25;;;;;;;;;;;19.00;99.90;;;;;;8325437;28;19940;-73
2021/09/15 16:41:27;;;;;;;;;;;19.00;99.90;;;;;;8322965;28;19975;-73
2021/09/15 16:45:29;;;;;;;;;;;19.00;99.90;;;;;;8336043;28;19973;-73
2021/09/15 16:49:30;;;;;;;;;;;19.10;99.90;;;;;;8334736;28;19929;-74
2021/09/15 16:53:32;;;;;;;;;;;19.10;99.90;;;;;;8321762;28;19925;-73
2021/09/15 16:57:34;;;;;;;;;;;19.00;99.90;;;;;;8324257;28;19929;-73
2021/09/15 17:01:36;;;;;;;;;;;18.90;99.90;;;;;;8334331;28;19979;-73
2021/09/15 17:05:38;;;;;;;;;;;18.90;99.90;;;;;;8327977;28;20285;-74
2021/09/15 17:09:39;;;;;;;;;;;18.80;99.90;;;;;;8324901;28;20321;-74
2021/09/15 17:13:41;;;;;;;;;;;18.80;99.90;;;;;;8331968;28;19925;-74
2021/09/15 17:17:46;;;;;;;;;;;18.80;99.90;;;;;;8330960;28;19929;-73
2021/09/15 17:21:49;;;;;;;;;;;18.80;99.90;;;;;;8338041;28;19925;-73
2021/09/15 17:25:51;;;;;;;;;;;18.70;99.90;;;;;;8332265;28;20254;-73
2021/09/15 17:29:52;;;;;;;;;;;18.70;99.90;;;;;;8329105;28;19925;-73
2021/09/15 17:33:54;;;;;;;;;;;18.60;99.90;;;;;;8343523;28;19948;-73
2021/09/15 17:37:56;;;;;;;;;;;18.60;99.90;;;;;;8337124;28;19948;-73
2021/09/15 17:41:59;;;;;;;;;;;18.60;99.90;;;;;;8326849;28;19936;-73
2021/09/15 17:46:06;;;;;;;;;;;18.60;99.90;;;;;;8338186;28;19924;-73
2021/09/15 17:50:08;;;;;;;;;;;18.60;99.90;;;;;;8340988;28;19929;-73
2021/09/15 17:54:09;;;;;;;;;;;18.50;99.90;;;;;;8324011;28;20431;-73
2021/09/15 17:58:11;;;;;;;;;;;18.50;99.90;;;;;;8328113;28;19929;-73
2021/09/15 18:02:13;;;;;;;;;;;18.50;99.90;;;;;;8328868;28;19952;-74
2021/09/15 18:06:14;;;;;;;;;;;18.30;99.90;;;;;;8331371;28;19988;-74
2021/09/15 18:10:17;;;;;;;;;;;18.30;99.90;;;;;;8328910;28;19933;-73
2021/09/15 18:14:19;;;;;;;;;;;18.20;99.90;;;;;;8329342;28;19925;-73
2021/09/15 18:18:20;;;;;;;;;;;18.10;99.90;;;;;;8331382;28;19925;-73
2021/09/15 18:22:22;;;;;;;;;;;18.10;99.90;;;;;;8326122;28;19994;-73
2021/09/15 18:26:24;;;;;;;;;;;18.00;99.90;;;;;;8341105;28;19932;-73
2021/09/15 18:30:25;;;;;;;5.85;1.35;;;18.00;99.90;;;;;;8326973;28;19921;-74
2021/09/15 18:34:28;;;;;;;;;;;18.00;99.90;;;;;;8333753;28;20060;-73
2021/09/15 18:38:30;;;;;;;;;;;17.90;99.90;;;;;;8339905;28;19929;-73
2021/09/15 18:42:32;;;;;;;;;;;17.90;99.90;;;;;;8333232;28;20341;-73
2021/09/15 18:46:37;;;;;;;;;;;17.90;99.90;;;;;;8327721;28;19931;-73
2021/09/15 18:50:39;;;;;;;;;;;17.90;99.90;;;;;;8320710;28;20211;-73
2021/09/15 18:54:40;;;;;;;;;;;17.90;99.90;;;;;;8331327;28;20369;-74
2021/09/15 18:58:42;;;;;;;;;;;17.80;99.90;;;;;;8322857;28;19971;-73
2021/09/15 19:02:44;;;;;;;;;;;17.90;99.90;;;;;;8325606;28;20385;-74
2021/09/15 19:06:47;;;;;;;;;;;17.90;99.90;;;;;;8324509;28;19929;-74
2021/09/15 19:10:49;;;;;;;;;;;17.90;99.90;;;;;;8322460;28;19921;-73
2021/09/15 19:14:50;;;;;;;;;;;17.90;99.90;;;;;;8338771;28;20364;-74
2021/09/15 19:18:53;;;;;;;;;;;17.80;99.90;;;;;;8338306;28;19924;-73
2021/09/15 19:22:54;;;;;;;;;;;17.80;99.90;;;;;;8332942;28;20384;-74
2021/09/15 19:26:56;;;;;;;;;;;17.80;99.90;;;;;;8337990;28;20351;-74
2021/09/15 19:30:58;;;;;;;;;;;17.70;99.90;;;;;;8334424;28;19931;-73
2021/09/15 19:35:00;;;;;;;;;;;17.70;99.90;;;;;;8339369;28;20281;-73
2021/09/15 19:39:02;;;;;;;;;;;17.70;99.90;;;;;;8339255;28;19925;-73
2021/09/15 19:43:04;;;;;;;;;;;17.60;99.90;;;;;;8335052;28;20610;-74
2021/09/15 19:47:08;;;;;;;;;;;17.60;99.90;;;;;;8343450;28;19929;-73
2021/09/15 19:51:10;;;;;;;;;;;17.60;99.90;;;;;;8336025;28;19925;-73
2021/09/15 19:55:14;;;;;;;;;;;17.60;99.90;;;;;;8338724;28;19951;-73
2021/09/15 19:59:16;;;;;;;;;;;17.60;99.90;;;;;;8340253;28;19925;-73
2021/09/15 20:03:20;;;;;;;;;;;17.50;99.90;;;;;;8331217;28;19921;-73
2021/09/15 20:07:24;;;;;;;;;;;17.50;99.90;;;;;;8331937;28;20391;-73
2021/09/15 20:11:26;;;;;;;;;;;17.50;99.90;;;;;;8337057;28;19929;-73
2021/09/15 20:15:27;;;;;;;;;;;17.60;99.90;;;;;;8337309;28;19978;-73
2021/09/15 20:19:29;;;;;;;;;;;17.60;99.90;;;;;;8332621;28;20328;-73
2021/09/15 20:23:31;;;;;;;;;;;17.60;99.90;;;;;;8337393;28;19921;-73
2021/09/15 20:27:32;;;;;;;;;;;17.60;99.90;;;;;;8336851;28;19940;-73
2021/09/15 20:31:35;;;;;;;;;;;17.60;99.90;;;;;;8336065;28;20656;-75
2021/09/15 20:35:36;;;;;;;;;;;17.50;99.90;;;;;;8342198;28;19929;-73
2021/09/15 20:39:38;;;;;;;;;;;17.50;99.90;;;;;;8329897;28;20375;-74
2021/09/15 20:43:40;;;;;;;;;;;17.50;99.90;;;;;;8327102;28;19925;-74
2021/09/15 20:47:41;;;;;;;;;;;17.40;99.90;;;;;;8339294;28;19987;-73
2021/09/15 20:51:44;;;;;;;;;;;17.40;99.90;;;;;;8333834;28;19929;-73
2021/09/15 20:55:46;;;;;;;;;;;17.30;99.90;;;;;;8339455;28;19920;-73
2021/09/15 20:59:47;;;;;;;;;;;17.20;99.90;;;;;;8341782;28;20002;-74
2021/09/15 21:03:49;;;;;;;;;;;17.20;99.90;;;;;;8360691;28;19924;-73
2021/09/15 21:07:51;;;;;;;;;;;17.20;99.90;;;;;;8361122;28;19965;-73
2021/09/15 21:11:52;;;;;;;;;;;17.20;99.90;;;;;;8358823;28;20280;-73
2021/09/15 21:15:54;;;;;;;;;;;17.10;99.90;;;;;;8357302;28;20265;-73
2021/09/15 21:19:57;;;;;;;;;;;17.20;99.90;;;;;;8362662;28;20518;-74
2021/09/15 21:23:58;;;;;;;;;;;17.20;99.90;;;;;;8356176;28;19978;-73
2021/09/15 21:28:00;;;;;;;;;;;17.20;99.90;;;;;;8357960;28;19925;-74
2021/09/15 21:32:02;;;;;;;;;;;17.20;99.90;;;;;;8360369;28;19925;-73
2021/09/15 21:36:04;;;;;;;;;;;17.20;99.90;;;;;;8360038;28;19924;-73
2021/09/15 21:40:06;;;;;;;;;;;17.10;99.90;;;;;;8356800;28;19929;-74
2021/09/15 21:44:08;;;;;;;;;;;17.10;99.90;;;;;;8357911;28;19922;-73
2021/09/15 21:48:09;;;;;;;;;;;17.10;99.90;;;;;;8360154;28;19966;-73
2021/09/15 21:52:11;;;;;;;3.75;1.13;;;17.10;99.90;;;;;;8352719;28;19927;-74
2021/09/15 21:56:14;;;;;;;6.55;1.50;;;17.10;99.90;;;;;;8350090;28;20045;-73
2021/09/15 22:00:18;;;;;;;7.88;1.48;;;17.00;99.90;;;;;;8361765;28;20045;-73
2021/09/15 22:04:20;;;;;;;4.80;1.60;;;16.90;99.90;;;;;;8355449;28;20378;-73
2021/09/15 22:08:22;;;;;;;7.10;1.40;;;16.90;99.90;;;;;;8354268;28;20049;-74
2021/09/15 22:12:24;;;;;;;3.88;1.30;;;16.80;99.90;;;;;;8358568;28;20079;-74
2021/09/15 22:16:25;;;;;;;4.95;1.55;;;16.70;99.90;;;;;;8355537;28;20048;-73
2021/09/15 22:20:28;;;;;;;6.88;1.60;;;16.60;99.90;;;;;;8359946;28;20349;-74
2021/09/15 22:24:30;;;;;;;;;;;16.50;99.90;;;;;;8347770;28;19920;-73
2021/09/15 22:28:31;;;;;;;;;;;16.50;99.90;;;;;;8350778;28;19925;-73
2021/09/15 22:32:33;;;;;;;;;;;16.40;99.90;;;;;;8356657;28;19936;-74
2021/09/15 22:36:35;;;;;;;;;;;16.30;99.90;;;;;;8351602;28;20070;-73
2021/09/15 22:40:36;;;;;;;;;;;16.30;99.90;;;;;;8363385;28;19936;-73
2021/09/15 22:44:38;;;;;;;6.05;1.50;;;16.30;99.90;;;;;;8356707;28;19932;-73
2021/09/15 22:48:40;;;;;;;6.35;1.50;;;16.20;99.90;;;;;;8346745;28;20045;-73
2021/09/15 22:52:45;;;;;;;4.05;1.75;;;16.10;99.90;;;;;;8359683;28;19929;-74
2021/09/15 22:56:46;;;;;;;;;;;16.10;99.90;;;;;;8358999;28;19924;-74
2021/09/15 23:00:48;;;;;;;5.55;1.60;;;16.10;99.90;;;;;;8357982;28;19921;-73
2021/09/15 23:04:50;;;;;;;4.20;1.40;;;16.10;99.90;;;;;;8360087;28;20045;-73
2021/09/15 23:08:52;;;;;;;;;;;16.10;99.90;;;;;;8361351;28;19983;-73
2021/09/15 23:12:53;;;;;;;;;;;16.00;99.90;;;;;;8343365;28;19921;-73
2021/09/15 23:16:58;;;;;;;;;;;16.00;99.90;;;;;;8353424;28;20015;-73
2021/09/15 23:21:00;;;;;;;;;;;16.00;99.90;;;;;;8349829;28;19924;-73
2021/09/15 23:25:03;;;;;;;;;;;16.00;99.90;;;;;;8358657;28;20276;-73
2021/09/15 23:29:04;;;;;;;;;;;16.00;99.90;;;;;;8355853;28;19921;-73
2021/09/15 23:33:06;;;;;;;;;;;16.00;99.90;;;;;;8365706;28;19929;-74